Wetterdaten: Woche 04.06.07 - 10.06.07 (KW23)
Datum Zeit Temperatur Luftfeuchte Luftdruck Niederschlag Wind Richtung Sonnenschein Solar Taupunkt Windchill Windben
04.06.2007 00:00 13.9 C 93 % 1018.2 hPa 0.0 l/m 2.6 km/h (1 Bft) O-SO 0.00 h 0 W/m 12.9 C 13.9 C 4.2 km/h (1 Bft)
04.06.2007 01:00 13.3 C 95 % 1018.0 hPa 0.0 l/m 1.1 km/h (1 Bft) O-SO 0.00 h 0 W/m 12.6 C 13.3 C 1.7 km/h (1 Bft)
04.06.2007 02:00 12.7 C 97 % 1017.7 hPa 0.0 l/m 2.5 km/h (1 Bft) SO 0.00 h 0 W/m 12.2 C 12.7 C 3.4 km/h (1 Bft)
04.06.2007 03:00 12.6 C 97 % 1017.4 hPa 0.0 l/m 2.0 km/h (1 Bft) SO 0.00 h 0 W/m 12.2 C 12.6 C 3.1 km/h (1 Bft)
04.06.2007 04:00 11.8 C 97 % 1017.5 hPa 0.0 l/m 0.9 km/h (0 Bft) SO 0.00 h 0 W/m 11.4 C 11.8 C 1.7 km/h (1 Bft)
04.06.2007 05:00 11.7 C 98 % 1017.6 hPa 0.0 l/m 0.0 km/h (0 Bft) N 0.00 h 9 W/m 11.4 C 11.7 C 0.1 km/h (0 Bft)
04.06.2007 06:00 12.5 C 99 % 1017.5 hPa 0.0 l/m 0.5 km/h (0 Bft) N-NW 0.00 h 45 W/m 12.4 C 12.5 C 1.1 km/h (1 Bft)
04.06.2007 07:00 13.4 C 100 % 1017.5 hPa 0.0 l/m 0.1 km/h (0 Bft) N-NW 0.00 h 111 W/m 13.4 C 13.4 C 0.4 km/h (0 Bft)
04.06.2007 08:00 14.2 C 100 % 1017.8 hPa 0.0 l/m 0.7 km/h (0 Bft) N-NW 0.12 h 232 W/m 14.2 C 14.2 C 2.1 km/h (1 Bft)
04.06.2007 09:00 16.8 C 88 % 1017.9 hPa 0.0 l/m 1.9 km/h (1 Bft) NW 0.98 h 523 W/m 14.7 C 16.8 C 3.5 km/h (1 Bft)
04.06.2007 10:00 19.7 C 77 % 1017.6 hPa 0.0 l/m 3.0 km/h (1 Bft) W-NW 0.92 h 621 W/m 15.6 C 19.7 C 5.3 km/h (1 Bft)
04.06.2007 11:00 22.2 C 68 % 1017.2 hPa 0.0 l/m 2.0 km/h (1 Bft) W 0.95 h 747 W/m 16.1 C 22.2 C 4.1 km/h (1 Bft)
04.06.2007 12:00 23.5 C 61 % 1016.9 hPa 0.0 l/m 5.3 km/h (1 Bft) O-SO 1.00 h 846 W/m 15.5 C 23.5 C 9.0 km/h (2 Bft)
04.06.2007 13:00 24.3 C 59 % 1016.4 hPa 0.0 l/m 5.5 km/h (1 Bft) O-SO 1.00 h 879 W/m 15.8 C 24.3 C 9.5 km/h (2 Bft)
04.06.2007 14:00 25.0 C 55 % 1015.7 hPa 0.0 l/m 4.5 km/h (1 Bft) SO 1.00 h 851 W/m 15.4 C 25.0 C 7.8 km/h (2 Bft)
04.06.2007 15:00 25.6 C 53 % 1015.2 hPa 0.0 l/m 5.4 km/h (1 Bft) SO 0.65 h 633 W/m 15.2 C 25.6 C 9.2 km/h (2 Bft)
04.06.2007 16:00 24.8 C 53 % 1015.1 hPa 0.0 l/m 7.3 km/h (2 Bft) O-SO 0.43 h 402 W/m 14.5 C 24.8 C 11.4 km/h (2 Bft)
04.06.2007 17:00 19.0 C 73 % 1016.4 hPa 3.6 l/m 11.8 km/h (2 Bft) N-NW 0.00 h 15 W/m 13.8 C 19.0 C 19.6 km/h (3 Bft)
04.06.2007 18:00 15.7 C 89 % 1017.0 hPa 3.6 l/m 3.8 km/h (1 Bft) N-NO 0.00 h 23 W/m 13.9 C 15.7 C 8.1 km/h (2 Bft)
04.06.2007 19:00 15.6 C 94 % 1017.1 hPa 0.2 l/m 1.3 km/h (1 Bft) SO 0.00 h 30 W/m 14.7 C 15.6 C 2.7 km/h (1 Bft)
04.06.2007 20:00 15.5 C 96 % 1016.7 hPa 0.0 l/m 1.1 km/h (1 Bft) N-NO 0.00 h 12 W/m 14.9 C 15.5 C 2.8 km/h (1 Bft)
04.06.2007 21:00 15.1 C 97 % 1016.5 hPa 0.0 l/m 1.2 km/h (1 Bft) NW 0.00 h 5 W/m 14.7 C 15.1 C 2.6 km/h (1 Bft)
04.06.2007 22:00 14.6 C 97 % 1016.6 hPa 0.0 l/m 0.5 km/h (0 Bft) O 0.00 h 0 W/m 14.2 C 14.6 C 1.2 km/h (1 Bft)
04.06.2007 23:00 14.2 C 98 % 1016.5 hPa 0.0 l/m 0.0 km/h (0 Bft) N 0.00 h 0 W/m 14.0 C 14.2 C 0.1 km/h (0 Bft)
05.06.2007 00:00 14.1 C 99 % 1016.4 hPa 0.0 l/m 0.0 km/h (0 Bft) N 0.00 h 0 W/m 13.9 C 14.1 C 0.2 km/h (0 Bft)
05.06.2007 01:00 13.8 C 100 % 1016.1 hPa 0.0 l/m 0.0 km/h (0 Bft) N 0.00 h 0 W/m 13.8 C 13.8 C 0.0 km/h (0 Bft)
05.06.2007 02:00 13.6 C 100 % 1016.0 hPa 0.0 l/m 0.0 km/h (0 Bft) N 0.00 h 0 W/m 13.6 C 13.6 C 0.0 km/h (0 Bft)
05.06.2007 03:00 13.1 C 100 % 1015.8 hPa 0.0 l/m 1.3 km/h (1 Bft) O 0.00 h 0 W/m 13.1 C 13.1 C 2.3 km/h (1 Bft)
05.06.2007 04:00 12.3 C 100 % 1015.8 hPa 0.0 l/m 0.6 km/h (0 Bft) O 0.00 h 0 W/m 12.3 C 12.3 C 1.4 km/h (1 Bft)
05.06.2007 05:00 12.0 C 100 % 1016.4 hPa 0.0 l/m 0.6 km/h (0 Bft) O 0.00 h 10 W/m 12.0 C 12.0 C 1.3 km/h (1 Bft)
05.06.2007 06:00 12.9 C 100 % 1016.6 hPa 0.0 l/m 0.0 km/h (0 Bft) O 0.00 h 33 W/m 12.9 C 12.9 C 0.3 km/h (0 Bft)
05.06.2007 07:00 13.3 C 100 % 1016.7 hPa 0.0 l/m 0.3 km/h (0 Bft) O 0.00 h 95 W/m 13.3 C 13.3 C 1.0 km/h (0 Bft)
05.06.2007 08:00 13.8 C 100 % 1016.6 hPa 0.0 l/m 0.6 km/h (0 Bft) NO 0.15 h 232 W/m 13.8 C 13.8 C 1.6 km/h (1 Bft)
05.06.2007 09:00 16.0 C 100 % 1016.0 hPa 0.0 l/m 0.9 km/h (0 Bft) N-NO 1.00 h 497 W/m 16.0 C 16.0 C 2.3 km/h (1 Bft)
05.06.2007 10:00 20.0 C 80 % 1015.4 hPa 0.0 l/m 3.6 km/h (1 Bft) O-SO 1.00 h 650 W/m 16.3 C 20.0 C 6.5 km/h (2 Bft)
05.06.2007 11:00 22.2 C 70 % 1014.8 hPa 0.0 l/m 4.2 km/h (1 Bft) O-SO 0.95 h 786 W/m 16.5 C 22.2 C 7.3 km/h (2 Bft)
05.06.2007 12:00 23.4 C 65 % 1014.4 hPa 0.0 l/m 4.2 km/h (1 Bft) N 0.72 h 729 W/m 16.5 C 23.4 C 7.5 km/h (2 Bft)
05.06.2007 13:00 23.7 C 61 % 1013.9 hPa 0.0 l/m 6.0 km/h (2 Bft) O-SO 0.38 h 600 W/m 15.7 C 23.7 C 10.2 km/h (2 Bft)
05.06.2007 14:00 23.5 C 63 % 1013.3 hPa 0.0 l/m 4.4 km/h (1 Bft) N-NW 0.15 h 360 W/m 16.1 C 23.5 C 7.2 km/h (2 Bft)
05.06.2007 15:00 23.0 C 63 % 1012.9 hPa 0.0 l/m 3.9 km/h (1 Bft) N 0.00 h 178 W/m 15.6 C 23.0 C 6.9 km/h (2 Bft)
05.06.2007 16:00 25.2 C 57 % 1012.3 hPa 0.0 l/m 8.6 km/h (2 Bft) N 0.93 h 628 W/m 15.9 C 25.2 C 14.2 km/h (3 Bft)
05.06.2007 17:00 25.7 C 52 % 1011.8 hPa 0.0 l/m 7.6 km/h (2 Bft) N 0.98 h 491 W/m 15.0 C 25.7 C 13.8 km/h (3 Bft)
05.06.2007 18:00 25.4 C 51 % 1011.4 hPa 0.0 l/m 6.0 km/h (2 Bft) N 1.00 h 341 W/m 14.3 C 25.4 C 11.4 km/h (2 Bft)
05.06.2007 19:00 24.3 C 52 % 1011.5 hPa 0.0 l/m 4.6 km/h (1 Bft) NO 0.73 h 175 W/m 13.8 C 24.3 C 9.4 km/h (2 Bft)
05.06.2007 20:00 22.7 C 58 % 1011.9 hPa 0.0 l/m 4.0 km/h (1 Bft) NO 0.17 h 43 W/m 14.0 C 22.7 C 7.9 km/h (2 Bft)
05.06.2007 21:00 21.1 C 63 % 1012.3 hPa 0.0 l/m 2.2 km/h (1 Bft) NO 0.00 h 6 W/m 13.8 C 21.1 C 5.0 km/h (1 Bft)
05.06.2007 22:00 19.5 C 70 % 1012.7 hPa 0.0 l/m 1.6 km/h (1 Bft) N-NO 0.00 h 0 W/m 13.8 C 19.5 C 3.6 km/h (1 Bft)
05.06.2007 23:00 18.6 C 73 % 1012.5 hPa 0.0 l/m 0.7 km/h (0 Bft) O-NO 0.00 h 0 W/m 13.5 C 18.6 C 2.3 km/h (1 Bft)
06.06.2007 00:00 18.0 C 74 % 1012.3 hPa 0.0 l/m 1.6 km/h (1 Bft) N-NO 0.00 h 0 W/m 13.3 C 18.0 C 4.3 km/h (1 Bft)
06.06.2007 01:00 17.5 C 76 % 1012.1 hPa 0.0 l/m 2.0 km/h (1 Bft) N-NO 0.00 h 0 W/m 13.3 C 17.5 C 5.0 km/h (1 Bft)
06.06.2007 02:00 16.5 C 81 % 1011.8 hPa 0.0 l/m 0.5 km/h (0 Bft) N-NO 0.00 h 0 W/m 13.2 C 16.5 C 1.8 km/h (1 Bft)
06.06.2007 03:00 15.8 C 84 % 1011.7 hPa 0.0 l/m 0.7 km/h (0 Bft) O 0.00 h 0 W/m 13.0 C 15.8 C 2.0 km/h (1 Bft)
06.06.2007 04:00 15.4 C 86 % 1011.1 hPa 0.0 l/m 0.7 km/h (0 Bft) N-NO 0.00 h 0 W/m 13.0 C 15.4 C 2.6 km/h (1 Bft)
06.06.2007 05:00 14.6 C 89 % 1011.1 hPa 0.0 l/m 0.5 km/h (0 Bft) O 0.00 h 12 W/m 12.9 C 14.6 C 1.8 km/h (1 Bft)
06.06.2007 06:00 15.7 C 87 % 1011.0 hPa 0.0 l/m 1.3 km/h (1 Bft) N-NO 0.00 h 46 W/m 13.5 C 15.7 C 3.0 km/h (1 Bft)
06.06.2007 07:00 16.8 C 84 % 1011.0 hPa 0.0 l/m 0.6 km/h (0 Bft) NW 0.00 h 101 W/m 14.1 C 16.8 C 2.0 km/h (1 Bft)
06.06.2007 08:00 17.6 C 80 % 1011.2 hPa 0.0 l/m 1.5 km/h (1 Bft) NO 0.00 h 112 W/m 14.1 C 17.6 C 3.8 km/h (1 Bft)
06.06.2007 09:00 18.4 C 78 % 1011.5 hPa 0.0 l/m 1.3 km/h (1 Bft) N 0.00 h 226 W/m 14.5 C 18.4 C 3.4 km/h (1 Bft)
06.06.2007 10:00 18.8 C 77 % 1011.6 hPa 0.0 l/m 3.0 km/h (1 Bft) O-SO 0.00 h 204 W/m 14.6 C 18.8 C 5.6 km/h (1 Bft)
06.06.2007 11:00 20.3 C 73 % 1011.7 hPa 0.0 l/m 5.0 km/h (1 Bft) O-SO 0.55 h 622 W/m 15.2 C 20.3 C 8.4 km/h (2 Bft)
06.06.2007 12:00 21.1 C 70 % 1011.6 hPa 0.0 l/m 7.5 km/h (2 Bft) O-SO 0.48 h 575 W/m 15.3 C 21.1 C 11.6 km/h (2 Bft)
06.06.2007 13:00 21.7 C 67 % 1011.5 hPa 0.0 l/m 8.9 km/h (2 Bft) O-SO 0.77 h 732 W/m 15.3 C 21.7 C 13.6 km/h (3 Bft)
06.06.2007 14:00 22.3 C 66 % 1011.3 hPa 0.0 l/m 7.3 km/h (2 Bft) O-SO 0.67 h 661 W/m 15.5 C 22.3 C 12.0 km/h (2 Bft)
06.06.2007 15:00 23.1 C 64 % 1011.1 hPa 0.0 l/m 7.7 km/h (2 Bft) O-SO 0.77 h 668 W/m 15.9 C 23.1 C 12.3 km/h (3 Bft)
06.06.2007 16:00 23.5 C 62 % 1010.6 hPa 0.0 l/m 6.3 km/h (2 Bft) O-SO 0.80 h 534 W/m 15.8 C 23.5 C 10.1 km/h (2 Bft)
06.06.2007 17:00 23.2 C 65 % 1010.2 hPa 0.0 l/m 5.0 km/h (1 Bft) O-SO 0.12 h 247 W/m 16.1 C 23.2 C 7.9 km/h (2 Bft)
06.06.2007 18:00 23.7 C 64 % 1009.8 hPa 0.0 l/m 3.2 km/h (1 Bft) SO 0.93 h 352 W/m 16.4 C 23.7 C 5.9 km/h (2 Bft)
06.06.2007 19:00 23.2 C 65 % 1009.8 hPa 0.0 l/m 3.1 km/h (1 Bft) O-SO 0.17 h 121 W/m 16.1 C 23.2 C 4.6 km/h (1 Bft)
06.06.2007 20:00 21.7 C 71 % 1009.8 hPa 0.0 l/m 0.7 km/h (0 Bft) O-SO 0.00 h 38 W/m 16.3 C 21.7 C 1.8 km/h (1 Bft)
06.06.2007 21:00 19.8 C 81 % 1010.1 hPa 0.0 l/m 0.1 km/h (0 Bft) O-SO 0.00 h 9 W/m 16.4 C 19.8 C 0.3 km/h (0 Bft)
06.06.2007 22:00 18.4 C 85 % 1010.6 hPa 0.0 l/m 0.7 km/h (0 Bft) O-SO 0.00 h 0 W/m 15.8 C 18.4 C 1.5 km/h (1 Bft)
06.06.2007 23:00 17.8 C 88 % 1010.5 hPa 0.0 l/m 1.7 km/h (1 Bft) O-SO 0.00 h 0 W/m 15.8 C 17.8 C 2.5 km/h (1 Bft)
07.06.2007 00:00 17.7 C 89 % 1010.5 hPa 0.0 l/m 0.2 km/h (0 Bft) O-SO 0.00 h 0 W/m 15.8 C 17.7 C 0.6 km/h (0 Bft)
07.06.2007 01:00 17.5 C 90 % 1010.2 hPa 0.0 l/m 1.1 km/h (1 Bft) O 0.00 h 0 W/m 15.7 C 17.5 C 2.6 km/h (1 Bft)
07.06.2007 02:00 17.1 C 91 % 1010.0 hPa 0.0 l/m 0.1 km/h (0 Bft) O 0.00 h 0 W/m 15.7 C 17.1 C 0.5 km/h (0 Bft)
07.06.2007 03:00 16.3 C 94 % 1010.0 hPa 0.0 l/m 0.3 km/h (0 Bft) O 0.00 h 0 W/m 15.4 C 16.3 C 1.2 km/h (1 Bft)
07.06.2007 04:00 15.6 C 95 % 1010.3 hPa 0.0 l/m 0.3 km/h (0 Bft) O 0.00 h 0 W/m 14.8 C 15.6 C 0.7 km/h (0 Bft)
07.06.2007 05:00 15.2 C 97 % 1010.6 hPa 0.0 l/m 1.0 km/h (0 Bft) O 0.00 h 11 W/m 14.7 C 15.2 C 1.7 km/h (1 Bft)
07.06.2007 06:00 15.5 C 96 % 1011.0 hPa 0.0 l/m 1.2 km/h (1 Bft) O 0.00 h 33 W/m 14.9 C 15.5 C 2.0 km/h (1 Bft)
07.06.2007 07:00 16.4 C 94 % 1011.1 hPa 0.0 l/m 0.0 km/h (0 Bft) O-NO 0.00 h 61 W/m 15.5 C 16.4 C 0.3 km/h (0 Bft)
07.06.2007 08:00 18.1 C 89 % 1011.2 hPa 0.0 l/m 0.9 km/h (0 Bft) N-NO 0.30 h 254 W/m 16.2 C 18.1 C 2.0 km/h (1 Bft)
07.06.2007 09:00 20.2 C 80 % 1011.1 hPa 0.0 l/m 1.8 km/h (1 Bft) W-NW 1.00 h 498 W/m 16.6 C 20.2 C 3.6 km/h (1 Bft)
07.06.2007 10:00 21.3 C 75 % 1011.0 hPa 0.0 l/m 1.0 km/h (0 Bft) NW 0.30 h 393 W/m 16.7 C 21.3 C 2.5 km/h (1 Bft)
07.06.2007 11:00 22.4 C 71 % 1011.0 hPa 0.0 l/m 1.7 km/h (1 Bft) O-SO 0.47 h 576 W/m 16.9 C 22.4 C 3.7 km/h (1 Bft)
07.06.2007 12:00 23.1 C 68 % 1011.0 hPa 0.0 l/m 3.0 km/h (1 Bft) O-SO 0.43 h 563 W/m 16.8 C 23.1 C 5.5 km/h (1 Bft)
07.06.2007 13:00 24.2 C 65 % 1010.9 hPa 0.0 l/m 2.2 km/h (1 Bft) SO 0.83 h 885 W/m 17.2 C 24.2 C 4.2 km/h (1 Bft)
07.06.2007 14:00 25.8 C 61 % 1010.2 hPa 0.0 l/m 4.4 km/h (1 Bft) W-NW 0.83 h 799 W/m 17.6 C 25.8 C 7.2 km/h (2 Bft)
07.06.2007 15:00 26.3 C 58 % 1009.8 hPa 0.0 l/m 3.7 km/h (1 Bft) O-SO 1.00 h 760 W/m 17.4 C 26.3 C 6.6 km/h (2 Bft)
07.06.2007 16:00 26.8 C 57 % 1009.5 hPa 0.0 l/m 3.2 km/h (1 Bft) O-SO 1.00 h 666 W/m 17.4 C 26.8 C 5.6 km/h (1 Bft)
07.06.2007 17:00 25.5 C 62 % 1009.4 hPa 0.0 l/m 5.3 km/h (1 Bft) O-SO 0.15 h 264 W/m 17.7 C 25.5 C 7.9 km/h (2 Bft)
07.06.2007 18:00 23.9 C 64 % 1010.0 hPa 0.0 l/m 6.8 km/h (2 Bft) SO 0.00 h 77 W/m 16.7 C 23.9 C 10.7 km/h (2 Bft)
07.06.2007 19:00 20.6 C 73 % 1010.8 hPa 0.0 l/m 5.0 km/h (1 Bft) N-NW 0.00 h 55 W/m 15.5 C 20.6 C 8.0 km/h (2 Bft)
07.06.2007 20:00 19.5 C 77 % 1011.4 hPa 0.0 l/m 3.1 km/h (1 Bft) N 0.00 h 26 W/m 15.4 C 19.5 C 5.3 km/h (1 Bft)
07.06.2007 21:00 18.8 C 82 % 1011.6 hPa 0.2 l/m 2.0 km/h (1 Bft) O-SO 0.00 h 5 W/m 15.6 C 18.8 C 3.4 km/h (1 Bft)
07.06.2007 22:00 17.7 C 91 % 1012.0 hPa 0.0 l/m 1.4 km/h (1 Bft) N-NO 0.00 h 0 W/m 16.2 C 17.7 C 2.8 km/h (1 Bft)
07.06.2007 23:00 17.8 C 90 % 1012.6 hPa 0.2 l/m 2.8 km/h (1 Bft) SO 0.00 h 0 W/m 16.2 C 17.8 C 4.9 km/h (1 Bft)
08.06.2007 00:00 17.4 C 92 % 1013.5 hPa 0.0 l/m 4.6 km/h (1 Bft) W-SW 0.00 h 0 W/m 16.2 C 17.4 C 7.8 km/h (2 Bft)
08.06.2007 01:00 16.9 C 94 % 1014.0 hPa 0.0 l/m 1.9 km/h (1 Bft) SW 0.00 h 0 W/m 15.9 C 16.9 C 5.0 km/h (1 Bft)
08.06.2007 02:00 16.6 C 94 % 1013.5 hPa 0.0 l/m 0.2 km/h (0 Bft) SW 0.00 h 0 W/m 15.6 C 16.6 C 0.9 km/h (0 Bft)
08.06.2007 03:00 15.5 C 96 % 1013.6 hPa 0.0 l/m 2.9 km/h (1 Bft) O-SO 0.00 h 0 W/m 14.9 C 15.5 C 4.2 km/h (1 Bft)
08.06.2007 04:00 15.7 C 97 % 1013.5 hPa 0.0 l/m 2.0 km/h (1 Bft) O-SO 0.00 h 0 W/m 15.2 C 15.7 C 3.5 km/h (1 Bft)
08.06.2007 05:00 15.5 C 97 % 1013.7 hPa 0.0 l/m 0.0 km/h (0 Bft) N 0.00 h 10 W/m 15.1 C 15.5 C 0.0 km/h (0 Bft)
08.06.2007 06:00 15.3 C 99 % 1014.4 hPa 0.0 l/m 0.0 km/h (0 Bft) N 0.00 h 44 W/m 15.1 C 15.3 C 0.0 km/h (0 Bft)
08.06.2007 07:00 16.5 C 98 % 1015.0 hPa 0.0 l/m 0.3 km/h (0 Bft) O-SO 0.27 h 147 W/m 16.1 C 16.5 C 0.8 km/h (0 Bft)
08.06.2007 08:00 18.5 C 91 % 1015.2 hPa 0.0 l/m 1.7 km/h (1 Bft) SW 0.62 h 298 W/m 17.0 C 18.5 C 3.8 km/h (1 Bft)
08.06.2007 09:00 20.3 C 84 % 1015.5 hPa 0.0 l/m 3.4 km/h (1 Bft) S-SO 0.65 h 431 W/m 17.5 C 20.3 C 7.4 km/h (2 Bft)
08.06.2007 10:00 21.7 C 76 % 1015.3 hPa 0.2 l/m 7.7 km/h (2 Bft) W 0.87 h 641 W/m 17.3 C 21.7 C 12.2 km/h (2 Bft)
08.06.2007 11:00 22.5 C 74 % 1015.3 hPa 0.0 l/m 5.3 km/h (1 Bft) W 0.38 h 504 W/m 17.6 C 22.5 C 8.9 km/h (2 Bft)
08.06.2007 12:00 23.1 C 74 % 1015.3 hPa 0.0 l/m 2.8 km/h (1 Bft) S-SO 0.27 h 491 W/m 18.1 C 23.1 C 5.7 km/h (1 Bft)
08.06.2007 13:00 24.1 C 69 % 1015.2 hPa 0.0 l/m 3.1 km/h (1 Bft) S-SO 0.37 h 562 W/m 18.1 C 24.1 C 5.8 km/h (2 Bft)
08.06.2007 14:00 25.6 C 65 % 1014.6 hPa 0.0 l/m 3.6 km/h (1 Bft) W-NW 0.67 h 703 W/m 18.4 C 25.6 C 5.9 km/h (2 Bft)
08.06.2007 15:00 25.3 C 63 % 1014.2 hPa 0.0 l/m 5.7 km/h (1 Bft) NW 0.47 h 467 W/m 17.6 C 25.3 C 8.6 km/h (2 Bft)
08.06.2007 16:00 24.7 C 65 % 1014.2 hPa 0.0 l/m 5.0 km/h (1 Bft) N-NW 0.12 h 265 W/m 17.5 C 24.7 C 7.9 km/h (2 Bft)
08.06.2007 17:00 24.0 C 68 % 1014.3 hPa 0.0 l/m 1.9 km/h (1 Bft) N 0.00 h 183 W/m 17.6 C 24.0 C 3.9 km/h (1 Bft)
08.06.2007 18:00 23.8 C 68 % 1014.3 hPa 0.0 l/m 0.3 km/h (0 Bft) NO 0.00 h 133 W/m 17.5 C 23.8 C 1.3 km/h (1 Bft)
08.06.2007 19:00 23.8 C 68 % 1014.0 hPa 0.0 l/m 0.5 km/h (0 Bft) NO 0.27 h 158 W/m 17.6 C 23.8 C 1.5 km/h (1 Bft)
08.06.2007 20:00 23.0 C 71 % 1014.4 hPa 0.0 l/m 1.2 km/h (1 Bft) O-SO 0.42 h 71 W/m 17.4 C 23.0 C 2.5 km/h (1 Bft)
08.06.2007 21:00 21.0 C 80 % 1014.9 hPa 0.0 l/m 1.7 km/h (1 Bft) O-SO 0.00 h 7 W/m 17.3 C 21.0 C 2.5 km/h (1 Bft)
08.06.2007 22:00 19.5 C 86 % 1015.6 hPa 0.0 l/m 1.4 km/h (1 Bft) O-SO 0.00 h 0 W/m 17.1 C 19.5 C 2.8 km/h (1 Bft)
08.06.2007 23:00 18.9 C 85 % 1015.8 hPa 0.0 l/m 1.9 km/h (1 Bft) O 0.00 h 0 W/m 16.3 C 18.9 C 3.0 km/h (1 Bft)
09.06.2007 00:00 18.2 C 89 % 1015.9 hPa 0.0 l/m 2.3 km/h (1 Bft) O 0.00 h 0 W/m 16.3 C 18.2 C 3.0 km/h (1 Bft)
09.06.2007 01:00 17.5 C 90 % 1015.9 hPa 0.0 l/m 0.5 km/h (0 Bft) O-SO 0.00 h 0 W/m 15.9 C 17.5 C 1.3 km/h (1 Bft)
09.06.2007 02:00 16.5 C 93 % 1015.8 hPa 0.0 l/m 0.3 km/h (0 Bft) O 0.00 h 0 W/m 15.4 C 16.5 C 1.0 km/h (0 Bft)
09.06.2007 03:00 16.1 C 95 % 1015.9 hPa 0.0 l/m 0.7 km/h (0 Bft) O 0.00 h 0 W/m 15.2 C 16.1 C 1.5 km/h (1 Bft)
09.06.2007 04:00 15.4 C 96 % 1016.0 hPa 0.0 l/m 0.3 km/h (0 Bft) O 0.00 h 0 W/m 14.8 C 15.4 C 0.6 km/h (0 Bft)
09.06.2007 05:00 15.0 C 97 % 1016.3 hPa 0.0 l/m 0.3 km/h (0 Bft) O 0.02 h 11 W/m 14.6 C 15.0 C 0.8 km/h (0 Bft)
09.06.2007 06:00 15.4 C 98 % 1016.5 hPa 0.0 l/m 0.0 km/h (0 Bft) O 0.00 h 29 W/m 15.0 C 15.4 C 0.2 km/h (0 Bft)
09.06.2007 07:00 16.6 C 95 % 1016.5 hPa 0.0 l/m 0.0 km/h (0 Bft) O 0.00 h 106 W/m 15.9 C 16.6 C 0.3 km/h (0 Bft)
09.06.2007 08:00 18.4 C 88 % 1016.5 hPa 0.0 l/m 0.4 km/h (0 Bft) O 0.60 h 301 W/m 16.3 C 18.4 C 1.3 km/h (1 Bft)
09.06.2007 09:00 20.9 C 81 % 1016.4 hPa 0.0 l/m 1.8 km/h (1 Bft) W-SW 0.90 h 463 W/m 17.5 C 20.9 C 4.0 km/h (1 Bft)
09.06.2007 10:00 22.8 C 75 % 1016.0 hPa 0.0 l/m 2.1 km/h (1 Bft) W 0.45 h 481 W/m 18.1 C 22.8 C 4.2 km/h (1 Bft)
09.06.2007 11:00 23.6 C 72 % 1015.8 hPa 0.0 l/m 2.3 km/h (1 Bft) S-SO 0.62 h 593 W/m 18.2 C 23.6 C 4.5 km/h (1 Bft)
09.06.2007 12:00 25.2 C 66 % 1015.4 hPa 0.0 l/m 4.0 km/h (1 Bft) W-NW 0.57 h 654 W/m 18.3 C 25.2 C 6.3 km/h (2 Bft)
09.06.2007 13:00 23.8 C 68 % 1015.1 hPa 0.0 l/m 7.1 km/h (2 Bft) W 0.12 h 324 W/m 17.5 C 23.8 C 11.5 km/h (2 Bft)
09.06.2007 14:00 23.3 C 71 % 1015.3 hPa 0.0 l/m 4.9 km/h (1 Bft) N-NW 0.37 h 467 W/m 17.7 C 23.3 C 8.2 km/h (2 Bft)
09.06.2007 15:00 24.2 C 65 % 1014.9 hPa 0.0 l/m 3.2 km/h (1 Bft) N-NW 0.52 h 510 W/m 17.1 C 24.2 C 5.7 km/h (1 Bft)
09.06.2007 16:00 26.0 C 60 % 1014.8 hPa 0.0 l/m 4.3 km/h (1 Bft) N-NW 0.77 h 624 W/m 17.7 C 26.0 C 7.1 km/h (2 Bft)
09.06.2007 17:00 24.9 C 64 % 1014.5 hPa 0.0 l/m 6.8 km/h (2 Bft) O-SO 0.67 h 379 W/m 17.7 C 24.9 C 9.9 km/h (2 Bft)
09.06.2007 18:00 25.0 C 64 % 1014.1 hPa 0.0 l/m 3.4 km/h (1 Bft) O-SO 0.75 h 300 W/m 17.7 C 25.0 C 5.7 km/h (1 Bft)
09.06.2007 19:00 24.1 C 67 % 1013.9 hPa 0.0 l/m 5.3 km/h (1 Bft) O-SO 0.92 h 179 W/m 17.6 C 24.1 C 7.5 km/h (2 Bft)
09.06.2007 20:00 23.2 C 71 % 1013.7 hPa 0.0 l/m 4.9 km/h (1 Bft) SO 0.00 h 62 W/m 17.6 C 23.2 C 7.3 km/h (2 Bft)
09.06.2007 21:00 21.6 C 74 % 1014.2 hPa 0.0 l/m 6.5 km/h (2 Bft) O-SO 0.00 h 9 W/m 16.8 C 21.6 C 8.7 km/h (2 Bft)
09.06.2007 22:00 19.8 C 82 % 1014.6 hPa 0.0 l/m 0.6 km/h (0 Bft) SO 0.00 h 0 W/m 16.6 C 19.8 C 1.6 km/h (1 Bft)
09.06.2007 23:00 18.6 C 87 % 1014.4 hPa 0.0 l/m 1.0 km/h (0 Bft) O-SO 0.00 h 0 W/m 16.3 C 18.6 C 2.0 km/h (1 Bft)
10.06.2007 00:00 17.6 C 92 % 1014.3 hPa 0.0 l/m 0.1 km/h (0 Bft) O-SO 0.00 h 0 W/m 16.2 C 17.6 C 0.5 km/h (0 Bft)
10.06.2007 01:00 16.8 C 93 % 1014.8 hPa 0.0 l/m 0.1 km/h (0 Bft) O-SO 0.00 h 0 W/m 15.7 C 16.8 C 0.6 km/h (0 Bft)
10.06.2007 02:00 16.1 C 95 % 1015.0 hPa 0.0 l/m 0.3 km/h (0 Bft) O-SO 0.00 h 0 W/m 15.3 C 16.1 C 0.7 km/h (0 Bft)
10.06.2007 03:00 15.3 C 97 % 1014.9 hPa 0.0 l/m 0.1 km/h (0 Bft) O-SO 0.00 h 0 W/m 14.8 C 15.3 C 0.3 km/h (0 Bft)
10.06.2007 04:00 14.8 C 98 % 1014.7 hPa 0.0 l/m 0.2 km/h (0 Bft) O-SO 0.00 h 0 W/m 14.5 C 14.8 C 0.6 km/h (0 Bft)
10.06.2007 05:00 14.7 C 99 % 1014.7 hPa 0.0 l/m 1.0 km/h (0 Bft) O-SO 0.03 h 14 W/m 14.5 C 14.7 C 1.9 km/h (1 Bft)
10.06.2007 06:00 15.3 C 100 % 1015.0 hPa 0.0 l/m 0.1 km/h (0 Bft) O-SO 0.00 h 48 W/m 15.3 C 15.3 C 0.5 km/h (0 Bft)
10.06.2007 07:00 16.1 C 99 % 1015.2 hPa 0.0 l/m 0.0 km/h (0 Bft) N 0.00 h 106 W/m 16.0 C 16.1 C 0.3 km/h (0 Bft)
10.06.2007 08:00 16.8 C 97 % 1015.1 hPa 0.0 l/m 0.8 km/h (0 Bft) O-SO 0.15 h 213 W/m 16.3 C 16.8 C 2.3 km/h (1 Bft)
10.06.2007 09:00 19.6 C 87 % 1014.8 hPa 0.0 l/m 1.3 km/h (1 Bft) SO 0.97 h 506 W/m 17.3 C 19.6 C 3.0 km/h (1 Bft)
10.06.2007 10:00 22.4 C 76 % 1014.4 hPa 0.0 l/m 2.5 km/h (1 Bft) W-NW 1.00 h 656 W/m 18.0 C 22.4 C 4.2 km/h (1 Bft)
10.06.2007 11:00 24.7 C 71 % 1014.0 hPa 0.0 l/m 2.2 km/h (1 Bft) W 1.00 h 769 W/m 18.9 C 24.7 C 4.3 km/h (1 Bft)
10.06.2007 12:00 26.3 C 61 % 1013.6 hPa 0.0 l/m 2.4 km/h (1 Bft) S-SO 1.00 h 846 W/m 18.0 C 26.3 C 5.2 km/h (1 Bft)
10.06.2007 13:00 27.8 C 52 % 1012.9 hPa 0.0 l/m 2.9 km/h (1 Bft) W 0.80 h 767 W/m 17.0 C 27.8 C 5.3 km/h (1 Bft)
10.06.2007 14:00 25.2 C 61 % 1012.9 hPa 0.0 l/m 1.9 km/h (1 Bft) W-SW 0.00 h 241 W/m 17.2 C 25.2 C 3.9 km/h (1 Bft)
10.06.2007 15:00 24.9 C 63 % 1013.0 hPa 0.0 l/m 7.1 km/h (2 Bft) W 0.45 h 407 W/m 17.5 C 24.9 C 11.0 km/h (2 Bft)
10.06.2007 16:00 25.4 C 52 % 1012.7 hPa 0.0 l/m 6.3 km/h (2 Bft) W-NW 0.32 h 409 W/m 14.7 C 25.4 C 9.5 km/h (2 Bft)
10.06.2007 17:00 25.9 C 48 % 1012.4 hPa 0.0 l/m 3.7 km/h (1 Bft) S 0.82 h 479 W/m 14.1 C 25.9 C 7.2 km/h (2 Bft)
10.06.2007 18:00 24.7 C 50 % 1012.1 hPa 0.0 l/m 2.0 km/h (1 Bft) S-SO 0.27 h 209 W/m 13.6 C 24.7 C 4.8 km/h (1 Bft)
10.06.2007 19:00 23.1 C 57 % 1012.1 hPa 0.0 l/m 2.6 km/h (1 Bft) S-SO 0.10 h 114 W/m 14.1 C 23.1 C 4.9 km/h (1 Bft)
10.06.2007 20:00 21.7 C 66 % 1012.4 hPa 0.0 l/m 2.3 km/h (1 Bft) SO 0.00 h 25 W/m 15.0 C 21.7 C 3.6 km/h (1 Bft)
10.06.2007 21:00 19.4 C 78 % 1013.7 hPa 0.4 l/m 10.2 km/h (2 Bft) W 0.00 h 0 W/m 15.5 C 19.4 C 15.9 km/h (3 Bft)
10.06.2007 22:00 17.4 C 89 % 1014.8 hPa 0.8 l/m 2.8 km/h (1 Bft) W 0.00 h 0 W/m 15.5 C 17.4 C 5.6 km/h (1 Bft)
10.06.2007 23:00 16.8 C 93 % 1014.5 hPa 0.0 l/m 1.6 km/h (1 Bft) O 0.00 h 0 W/m 15.6 C 16.8 C 2.9 km/h (1 Bft)
Min-Datum _ 04.06.07 10.06.07 07.06.07 - 04.06.07 - - - 04.06.07 04.06.07 04.06.07
_ Min-Zeit 04:33 13:10 17:15 - 00:12 - - - 04:33 04:33 00:15
Minimum _ 11.4 C 44 % 1009.2 hPa - 0.0 km/h (0 Bft) - - - 10.9 C 11.4 C 0.0 km/h (0 Bft)
Max-Datum _ 10.06.07 04.06.07 04.06.07 04.06.07 10.06.07 - 04.06.07 06.06.07 09.06.07 10.06.07 04.06.07
_ Max-Zeit 13:43 06:42 00:00 17:37 21:26 - 08:48 11:52 14:25 13:43 17:08
Maximum _ 28.7 C 100 % 1018.2 hPa 3.6 l/m 21.4 km/h
W (4 Bft)
- 0.02 h 1123 W/m 20.8 C 28.7 C 38.2 km/h
N-NW (5 Bft)
Durchschnitt _ 19.5 C 80 % 1013.8 hPa #9.2 l/m 2.6 km/h (1 Bft) O-SO #46:17 h 334 W/m 15.5 C 19.5 C 4.6 km/h (1 Bft)
© Kaiko 2007